sensor_id;sensor_type;location;lat;lon;timestamp;P1;durP1;ratioP1;P2;durP2;ratioP2
80536;SDS011;69867;47.074;15.404;2023-05-14T00:00:21;23.85;;;13.30;;
80536;SDS011;69867;47.074;15.404;2023-05-14T00:02:46;22.90;;;12.13;;
80536;SDS011;69867;47.074;15.404;2023-05-14T00:05:12;24.08;;;13.18;;
80536;SDS011;69867;47.074;15.404;2023-05-14T00:07:37;19.58;;;10.63;;
80536;SDS011;69867;47.074;15.404;2023-05-14T00:10:03;21.95;;;11.70;;
80536;SDS011;69867;47.074;15.404;2023-05-14T00:12:28;17.95;;;10.18;;
80536;SDS011;69867;47.074;15.404;2023-05-14T00:14:54;21.45;;;12.45;;
80536;SDS011;69867;47.074;15.404;2023-05-14T00:17:19;19.98;;;11.48;;
80536;SDS011;69867;47.074;15.404;2023-05-14T00:19:44;20.92;;;11.43;;
80536;SDS011;69867;47.074;15.404;2023-05-14T00:22:10;18.23;;;10.48;;
80536;SDS011;69867;47.074;15.404;2023-05-14T00:24:35;17.83;;;10.88;;
80536;SDS011;69867;47.074;15.404;2023-05-14T00:27:01;16.50;;;9.93;;
80536;SDS011;69867;47.074;15.404;2023-05-14T00:29:27;17.08;;;9.60;;
80536;SDS011;69867;47.074;15.404;2023-05-14T00:31:52;17.85;;;10.15;;
80536;SDS011;69867;47.074;15.404;2023-05-14T00:34:17;15.02;;;8.77;;
80536;SDS011;69867;47.074;15.404;2023-05-14T00:36:43;15.70;;;9.80;;
80536;SDS011;69867;47.074;15.404;2023-05-14T00:39:08;14.40;;;9.02;;
80536;SDS011;69867;47.074;15.404;2023-05-14T00:41:34;15.40;;;8.75;;
80536;SDS011;69867;47.074;15.404;2023-05-14T00:43:59;17.10;;;9.60;;
80536;SDS011;69867;47.074;15.404;2023-05-14T00:46:24;15.32;;;9.63;;
80536;SDS011;69867;47.074;15.404;2023-05-14T00:48:50;17.48;;;10.40;;
80536;SDS011;69867;47.074;15.404;2023-05-14T00:51:16;17.13;;;10.00;;
80536;SDS011;69867;47.074;15.404;2023-05-14T00:53:42;16.58;;;9.43;;
80536;SDS011;69867;47.074;15.404;2023-05-14T00:56:07;16.90;;;10.00;;
80536;SDS011;69867;47.074;15.404;2023-05-14T00:58:33;18.30;;;9.98;;
80536;SDS011;69867;47.074;15.404;2023-05-14T01:00:58;16.05;;;9.38;;
80536;SDS011;69867;47.074;15.404;2023-05-14T01:03:24;15.80;;;9.23;;
80536;SDS011;69867;47.074;15.404;2023-05-14T01:11:29;15.82;;;9.07;;
80536;SDS011;69867;47.074;15.404;2023-05-14T01:14:13;18.75;;;10.57;;
80536;SDS011;69867;47.074;15.404;2023-05-14T01:16:43;14.82;;;8.35;;
80536;SDS011;69867;47.074;15.404;2023-05-14T01:19:16;14.85;;;8.30;;
80536;SDS011;69867;47.074;15.404;2023-05-14T01:21:46;13.70;;;8.35;;
80536;SDS011;69867;47.074;15.404;2023-05-14T01:24:11;18.25;;;8.32;;
80536;SDS011;69867;47.074;15.404;2023-05-14T01:26:37;14.25;;;9.15;;
80536;SDS011;69867;47.074;15.404;2023-05-14T01:31:54;11.68;;;7.32;;
80536;SDS011;69867;47.074;15.404;2023-05-14T01:34:23;15.20;;;8.10;;
80536;SDS011;69867;47.074;15.404;2023-05-14T01:36:50;12.88;;;7.90;;
80536;SDS011;69867;47.074;15.404;2023-05-14T01:39:16;14.95;;;7.03;;
80536;SDS011;69867;47.074;15.404;2023-05-14T01:41:43;12.60;;;7.35;;
80536;SDS011;69867;47.074;15.404;2023-05-14T01:44:10;13.18;;;7.78;;
80536;SDS011;69867;47.074;15.404;2023-05-14T01:46:36;12.70;;;6.80;;
80536;SDS011;69867;47.074;15.404;2023-05-14T02:06:16;14.25;;;9.18;;
80536;SDS011;69867;47.074;15.404;2023-05-14T02:08:42;14.95;;;9.02;;
80536;SDS011;69867;47.074;15.404;2023-05-14T02:11:07;16.52;;;10.43;;
80536;SDS011;69867;47.074;15.404;2023-05-14T02:13:32;16.75;;;9.90;;
80536;SDS011;69867;47.074;15.404;2023-05-14T02:15:58;22.17;;;12.18;;
80536;SDS011;69867;47.074;15.404;2023-05-14T02:18:23;17.15;;;10.05;;
80536;SDS011;69867;47.074;15.404;2023-05-14T02:20:48;17.63;;;10.57;;
80536;SDS011;69867;47.074;15.404;2023-05-14T02:23:14;19.08;;;11.55;;
80536;SDS011;69867;47.074;15.404;2023-05-14T02:25:39;21.35;;;12.02;;
80536;SDS011;69867;47.074;15.404;2023-05-14T02:28:04;21.65;;;12.82;;
80536;SDS011;69867;47.074;15.404;2023-05-14T02:30:30;20.40;;;12.35;;
80536;SDS011;69867;47.074;15.404;2023-05-14T02:32:55;19.00;;;11.80;;
80536;SDS011;69867;47.074;15.404;2023-05-14T02:35:21;19.27;;;10.02;;
80536;SDS011;69867;47.074;15.404;2023-05-14T02:37:46;23.75;;;12.93;;
80536;SDS011;69867;47.074;15.404;2023-05-14T02:40:11;20.30;;;11.93;;
80536;SDS011;69867;47.074;15.404;2023-05-14T02:42:37;22.98;;;12.48;;
80536;SDS011;69867;47.074;15.404;2023-05-14T02:45:03;23.15;;;13.88;;
80536;SDS011;69867;47.074;15.404;2023-05-14T02:47:28;21.63;;;12.30;;
80536;SDS011;69867;47.074;15.404;2023-05-14T02:49:54;20.77;;;13.27;;
80536;SDS011;69867;47.074;15.404;2023-05-14T02:52:19;23.88;;;13.85;;
80536;SDS011;69867;47.074;15.404;2023-05-14T02:54:44;30.75;;;13.65;;
80536;SDS011;69867;47.074;15.404;2023-05-14T02:57:10;25.45;;;14.30;;
80536;SDS011;69867;47.074;15.404;2023-05-14T02:59:35;26.13;;;12.20;;
80536;SDS011;69867;47.074;15.404;2023-05-14T03:02:00;21.80;;;12.85;;
80536;SDS011;69867;47.074;15.404;2023-05-14T03:04:26;26.45;;;14.20;;
80536;SDS011;69867;47.074;15.404;2023-05-14T03:06:51;24.58;;;15.38;;
80536;SDS011;69867;47.074;15.404;2023-05-14T03:09:16;22.20;;;13.75;;
80536;SDS011;69867;47.074;15.404;2023-05-14T03:11:42;24.95;;;14.07;;
80536;SDS011;69867;47.074;15.404;2023-05-14T03:14:07;25.42;;;15.68;;
80536;SDS011;69867;47.074;15.404;2023-05-14T03:16:32;27.67;;;14.80;;
80536;SDS011;69867;47.074;15.404;2023-05-14T03:18:58;29.52;;;15.35;;
80536;SDS011;69867;47.074;15.404;2023-05-14T03:21:23;25.77;;;15.35;;
80536;SDS011;69867;47.074;15.404;2023-05-14T03:23:49;30.15;;;15.48;;
80536;SDS011;69867;47.074;15.404;2023-05-14T03:26:14;24.67;;;14.75;;
80536;SDS011;69867;47.074;15.404;2023-05-14T03:28:39;26.23;;;13.75;;
80536;SDS011;69867;47.074;15.404;2023-05-14T03:31:05;24.02;;;14.10;;
80536;SDS011;69867;47.074;15.404;2023-05-14T03:33:30;24.58;;;14.63;;
80536;SDS011;69867;47.074;15.404;2023-05-14T03:35:55;23.10;;;11.82;;
80536;SDS011;69867;47.074;15.404;2023-05-14T03:38:21;21.73;;;12.35;;
80536;SDS011;69867;47.074;15.404;2023-05-14T03:40:46;23.55;;;12.90;;
80536;SDS011;69867;47.074;15.404;2023-05-14T03:43:11;22.38;;;13.75;;
80536;SDS011;69867;47.074;15.404;2023-05-14T03:45:37;24.50;;;14.20;;
80536;SDS011;69867;47.074;15.404;2023-05-14T03:48:02;28.33;;;14.07;;
80536;SDS011;69867;47.074;15.404;2023-05-14T03:50:28;25.48;;;13.93;;
80536;SDS011;69867;47.074;15.404;2023-05-14T03:52:53;19.67;;;12.15;;
80536;SDS011;69867;47.074;15.404;2023-05-14T03:55:19;23.63;;;13.02;;
80536;SDS011;69867;47.074;15.404;2023-05-14T03:57:44;23.77;;;14.05;;
80536;SDS011;69867;47.074;15.404;2023-05-14T04:00:10;22.00;;;13.98;;
80536;SDS011;69867;47.074;15.404;2023-05-14T04:02:36;22.25;;;12.25;;
80536;SDS011;69867;47.074;15.404;2023-05-14T04:05:01;23.10;;;13.52;;
80536;SDS011;69867;47.074;15.404;2023-05-14T04:07:27;21.70;;;12.18;;
80536;SDS011;69867;47.074;15.404;2023-05-14T04:09:52;21.67;;;13.95;;
80536;SDS011;69867;47.074;15.404;2023-05-14T04:12:17;23.08;;;14.80;;
80536;SDS011;69867;47.074;15.404;2023-05-14T04:14:43;22.05;;;13.70;;
80536;SDS011;69867;47.074;15.404;2023-05-14T04:17:08;21.23;;;13.48;;
80536;SDS011;69867;47.074;15.404;2023-05-14T04:19:33;21.17;;;11.05;;
80536;SDS011;69867;47.074;15.404;2023-05-14T04:21:59;22.35;;;13.18;;
80536;SDS011;69867;47.074;15.404;2023-05-14T04:24:24;23.40;;;12.85;;
80536;SDS011;69867;47.074;15.404;2023-05-14T04:26:49;20.45;;;12.57;;
80536;SDS011;69867;47.074;15.404;2023-05-14T04:29:15;19.67;;;11.73;;
80536;SDS011;69867;47.074;15.404;2023-05-14T04:31:40;19.85;;;11.70;;
80536;SDS011;69867;47.074;15.404;2023-05-14T04:34:05;24.13;;;13.55;;
80536;SDS011;69867;47.074;15.404;2023-05-14T04:36:31;22.10;;;12.90;;
80536;SDS011;69867;47.074;15.404;2023-05-14T04:38:56;17.85;;;10.57;;
80536;SDS011;69867;47.074;15.404;2023-05-14T04:41:21;22.77;;;13.25;;
80536;SDS011;69867;47.074;15.404;2023-05-14T04:43:48;20.67;;;11.38;;
80536;SDS011;69867;47.074;15.404;2023-05-14T04:46:14;20.00;;;12.15;;
80536;SDS011;69867;47.074;15.404;2023-05-14T04:48:39;23.27;;;12.80;;
80536;SDS011;69867;47.074;15.404;2023-05-14T04:51:05;22.45;;;12.90;;
80536;SDS011;69867;47.074;15.404;2023-05-14T04:53:30;18.95;;;10.82;;
80536;SDS011;69867;47.074;15.404;2023-05-14T04:55:55;19.67;;;11.65;;
80536;SDS011;69867;47.074;15.404;2023-05-14T04:58:21;20.75;;;12.85;;
80536;SDS011;69867;47.074;15.404;2023-05-14T05:00:46;20.10;;;11.05;;
80536;SDS011;69867;47.074;15.404;2023-05-14T05:03:11;21.23;;;12.05;;
80536;SDS011;69867;47.074;15.404;2023-05-14T05:05:37;21.20;;;12.68;;
80536;SDS011;69867;47.074;15.404;2023-05-14T05:08:02;18.25;;;10.98;;
80536;SDS011;69867;47.074;15.404;2023-05-14T05:10:28;16.27;;;10.65;;
80536;SDS011;69867;47.074;15.404;2023-05-14T05:12:53;16.35;;;9.68;;
80536;SDS011;69867;47.074;15.404;2023-05-14T05:15:18;16.50;;;10.55;;
80536;SDS011;69867;47.074;15.404;2023-05-14T05:17:44;14.77;;;9.48;;
80536;SDS011;69867;47.074;15.404;2023-05-14T05:20:09;16.70;;;9.75;;
80536;SDS011;69867;47.074;15.404;2023-05-14T05:22:35;12.80;;;9.60;;
80536;SDS011;69867;47.074;15.404;2023-05-14T05:25:01;15.30;;;9.23;;
80536;SDS011;69867;47.074;15.404;2023-05-14T05:27:26;14.07;;;9.07;;
80536;SDS011;69867;47.074;15.404;2023-05-14T05:29:51;13.75;;;8.93;;
80536;SDS011;69867;47.074;15.404;2023-05-14T05:32:17;14.07;;;8.43;;
80536;SDS011;69867;47.074;15.404;2023-05-14T05:34:42;12.38;;;7.78;;
80536;SDS011;69867;47.074;15.404;2023-05-14T05:37:08;12.45;;;7.50;;
80536;SDS011;69867;47.074;15.404;2023-05-14T05:39:33;11.98;;;8.73;;
80536;SDS011;69867;47.074;15.404;2023-05-14T05:41:59;13.45;;;8.25;;
80536;SDS011;69867;47.074;15.404;2023-05-14T05:44:25;12.95;;;8.07;;
80536;SDS011;69867;47.074;15.404;2023-05-14T05:46:51;15.88;;;9.02;;
80536;SDS011;69867;47.074;15.404;2023-05-14T05:49:16;12.88;;;8.65;;
80536;SDS011;69867;47.074;15.404;2023-05-14T05:51:41;13.32;;;8.68;;
80536;SDS011;69867;47.074;15.404;2023-05-14T05:54:06;12.43;;;7.53;;
80536;SDS011;69867;47.074;15.404;2023-05-14T05:56:32;12.38;;;7.50;;
80536;SDS011;69867;47.074;15.404;2023-05-14T05:58:57;12.23;;;6.80;;
80536;SDS011;69867;47.074;15.404;2023-05-14T06:01:22;13.05;;;7.63;;
80536;SDS011;69867;47.074;15.404;2023-05-14T06:03:48;11.52;;;6.47;;
80536;SDS011;69867;47.074;15.404;2023-05-14T06:06:13;10.77;;;6.72;;
80536;SDS011;69867;47.074;15.404;2023-05-14T06:08:38;10.98;;;7.80;;
80536;SDS011;69867;47.074;15.404;2023-05-14T06:11:04;13.50;;;8.70;;
80536;SDS011;69867;47.074;15.404;2023-05-14T06:13:29;12.00;;;7.70;;
80536;SDS011;69867;47.074;15.404;2023-05-14T06:15:54;10.85;;;6.30;;
80536;SDS011;69867;47.074;15.404;2023-05-14T06:18:20;11.88;;;7.18;;
80536;SDS011;69867;47.074;15.404;2023-05-14T06:20:45;14.70;;;9.00;;
80536;SDS011;69867;47.074;15.404;2023-05-14T06:23:10;11.93;;;8.25;;
80536;SDS011;69867;47.074;15.404;2023-05-14T06:25:35;14.82;;;8.52;;
80536;SDS011;69867;47.074;15.404;2023-05-14T06:28:01;12.13;;;7.63;;
80536;SDS011;69867;47.074;15.404;2023-05-14T06:30:26;11.55;;;7.82;;
80536;SDS011;69867;47.074;15.404;2023-05-14T06:32:51;11.27;;;6.85;;
80536;SDS011;69867;47.074;15.404;2023-05-14T06:35:17;10.10;;;6.88;;
80536;SDS011;69867;47.074;15.404;2023-05-14T06:37:43;11.82;;;7.43;;
80536;SDS011;69867;47.074;15.404;2023-05-14T06:40:08;13.57;;;8.48;;
80536;SDS011;69867;47.074;15.404;2023-05-14T06:42:34;12.88;;;8.52;;
80536;SDS011;69867;47.074;15.404;2023-05-14T06:44:59;11.93;;;7.57;;
80536;SDS011;69867;47.074;15.404;2023-05-14T06:47:25;13.25;;;8.73;;
80536;SDS011;69867;47.074;15.404;2023-05-14T06:49:50;10.73;;;6.85;;
80536;SDS011;69867;47.074;15.404;2023-05-14T06:52:15;12.73;;;8.25;;
80536;SDS011;69867;47.074;15.404;2023-05-14T06:54:41;11.30;;;7.13;;
80536;SDS011;69867;47.074;15.404;2023-05-14T06:57:06;10.15;;;6.22;;
80536;SDS011;69867;47.074;15.404;2023-05-14T06:59:31;12.35;;;7.18;;
80536;SDS011;69867;47.074;15.404;2023-05-14T07:01:57;9.30;;;5.75;;
80536;SDS011;69867;47.074;15.404;2023-05-14T07:04:22;10.68;;;6.75;;
80536;SDS011;69867;47.074;15.404;2023-05-14T07:06:47;11.63;;;7.32;;
80536;SDS011;69867;47.074;15.404;2023-05-14T07:09:13;10.30;;;6.97;;
80536;SDS011;69867;47.074;15.404;2023-05-14T07:11:38;13.38;;;7.65;;
80536;SDS011;69867;47.074;15.404;2023-05-14T07:14:03;11.98;;;7.68;;
80536;SDS011;69867;47.074;15.404;2023-05-14T07:16:29;13.52;;;8.30;;
80536;SDS011;69867;47.074;15.404;2023-05-14T07:18:54;10.57;;;7.32;;
80536;SDS011;69867;47.074;15.404;2023-05-14T07:21:19;11.25;;;7.45;;
80536;SDS011;69867;47.074;15.404;2023-05-14T07:23:45;11.85;;;7.80;;
80536;SDS011;69867;47.074;15.404;2023-05-14T07:26:10;12.93;;;8.07;;
80536;SDS011;69867;47.074;15.404;2023-05-14T07:28:35;11.95;;;7.72;;
80536;SDS011;69867;47.074;15.404;2023-05-14T07:31:01;9.90;;;6.88;;
80536;SDS011;69867;47.074;15.404;2023-05-14T07:33:26;10.68;;;6.68;;
80536;SDS011;69867;47.074;15.404;2023-05-14T07:35:52;9.75;;;6.43;;
80536;SDS011;69867;47.074;15.404;2023-05-14T07:38:17;8.70;;;6.35;;
80536;SDS011;69867;47.074;15.404;2023-05-14T07:40:43;7.97;;;5.65;;
80536;SDS011;69867;47.074;15.404;2023-05-14T07:43:09;8.77;;;6.00;;
80536;SDS011;69867;47.074;15.404;2023-05-14T07:45:35;8.18;;;5.38;;
80536;SDS011;69867;47.074;15.404;2023-05-14T07:48:01;9.25;;;5.00;;
80536;SDS011;69867;47.074;15.404;2023-05-14T07:50:26;8.13;;;5.15;;
80536;SDS011;69867;47.074;15.404;2023-05-14T07:52:51;7.50;;;5.25;;
80536;SDS011;69867;47.074;15.404;2023-05-14T07:55:17;6.65;;;4.35;;
80536;SDS011;69867;47.074;15.404;2023-05-14T07:57:42;6.40;;;4.45;;
80536;SDS011;69867;47.074;15.404;2023-05-14T08:00:07;7.03;;;4.13;;
80536;SDS011;69867;47.074;15.404;2023-05-14T08:02:33;8.70;;;5.57;;
80536;SDS011;69867;47.074;15.404;2023-05-14T08:04:58;7.93;;;4.80;;
80536;SDS011;69867;47.074;15.404;2023-05-14T08:07:24;6.03;;;4.25;;
80536;SDS011;69867;47.074;15.404;2023-05-14T08:09:49;6.03;;;4.47;;
80536;SDS011;69867;47.074;15.404;2023-05-14T08:12:14;5.15;;;3.40;;
80536;SDS011;69867;47.074;15.404;2023-05-14T08:14:40;4.68;;;2.75;;
80536;SDS011;69867;47.074;15.404;2023-05-14T08:17:05;3.38;;;2.38;;
80536;SDS011;69867;47.074;15.404;2023-05-14T08:19:30;5.13;;;2.95;;
80536;SDS011;69867;47.074;15.404;2023-05-14T08:21:56;4.40;;;2.92;;
80536;SDS011;69867;47.074;15.404;2023-05-14T08:24:22;4.55;;;2.67;;
80536;SDS011;69867;47.074;15.404;2023-05-14T08:26:47;6.93;;;3.40;;
80536;SDS011;69867;47.074;15.404;2023-05-14T08:29:12;4.97;;;3.50;;
80536;SDS011;69867;47.074;15.404;2023-05-14T08:31:38;4.35;;;2.63;;
80536;SDS011;69867;47.074;15.404;2023-05-14T08:34:03;4.30;;;2.80;;
80536;SDS011;69867;47.074;15.404;2023-05-14T08:36:29;4.30;;;2.65;;
80536;SDS011;69867;47.074;15.404;2023-05-14T08:38:54;4.85;;;2.83;;
80536;SDS011;69867;47.074;15.404;2023-05-14T08:41:19;4.78;;;2.13;;
80536;SDS011;69867;47.074;15.404;2023-05-14T08:46:31;3.95;;;2.10;;
80536;SDS011;69867;47.074;15.404;2023-05-14T08:49:04;3.65;;;2.00;;
80536;SDS011;69867;47.074;15.404;2023-05-14T08:51:30;3.83;;;2.35;;
80536;SDS011;69867;47.074;15.404;2023-05-14T08:53:57;3.13;;;1.95;;
80536;SDS011;69867;47.074;15.404;2023-05-14T08:56:26;3.53;;;1.92;;
80536;SDS011;69867;47.074;15.404;2023-05-14T08:58:51;4.15;;;2.30;;
80536;SDS011;69867;47.074;15.404;2023-05-14T09:01:17;3.08;;;1.80;;
80536;SDS011;69867;47.074;15.404;2023-05-14T09:03:42;3.83;;;2.40;;
80536;SDS011;69867;47.074;15.404;2023-05-14T09:06:09;3.95;;;1.90;;
80536;SDS011;69867;47.074;15.404;2023-05-14T09:08:35;3.60;;;1.85;;
80536;SDS011;69867;47.074;15.404;2023-05-14T09:11:00;2.50;;;1.10;;
80536;SDS011;69867;47.074;15.404;2023-05-14T09:13:26;3.33;;;1.70;;
80536;SDS011;69867;47.074;15.404;2023-05-14T09:15:51;3.30;;;2.15;;
80536;SDS011;69867;47.074;15.404;2023-05-14T09:18:17;3.35;;;1.90;;
80536;SDS011;69867;47.074;15.404;2023-05-14T09:20:42;2.55;;;1.45;;
80536;SDS011;69867;47.074;15.404;2023-05-14T09:23:08;3.70;;;1.65;;
80536;SDS011;69867;47.074;15.404;2023-05-14T09:25:33;2.72;;;1.73;;
80536;SDS011;69867;47.074;15.404;2023-05-14T09:27:58;3.20;;;1.60;;
80536;SDS011;69867;47.074;15.404;2023-05-14T09:30:29;2.42;;;1.30;;
80536;SDS011;69867;47.074;15.404;2023-05-14T09:32:54;4.03;;;2.13;;
80536;SDS011;69867;47.074;15.404;2023-05-14T09:35:20;4.07;;;2.15;;
80536;SDS011;69867;47.074;15.404;2023-05-14T09:37:48;3.10;;;1.98;;
80536;SDS011;69867;47.074;15.404;2023-05-14T09:40:15;2.90;;;1.58;;
80536;SDS011;69867;47.074;15.404;2023-05-14T09:42:42;3.08;;;1.50;;
80536;SDS011;69867;47.074;15.404;2023-05-14T09:45:08;3.50;;;2.10;;
80536;SDS011;69867;47.074;15.404;2023-05-14T09:47:35;3.00;;;1.50;;
80536;SDS011;69867;47.074;15.404;2023-05-14T09:50:01;4.47;;;2.25;;
80536;SDS011;69867;47.074;15.404;2023-05-14T09:52:26;3.35;;;1.77;;
80536;SDS011;69867;47.074;15.404;2023-05-14T09:54:52;3.38;;;1.80;;
80536;SDS011;69867;47.074;15.404;2023-05-14T09:57:17;3.55;;;1.73;;
80536;SDS011;69867;47.074;15.404;2023-05-14T09:59:43;3.88;;;2.10;;
80536;SDS011;69867;47.074;15.404;2023-05-14T10:02:15;2.83;;;1.75;;
80536;SDS011;69867;47.074;15.404;2023-05-14T10:05:01;3.20;;;1.70;;
80536;SDS011;69867;47.074;15.404;2023-05-14T10:07:32;3.35;;;1.70;;
80536;SDS011;69867;47.074;15.404;2023-05-14T10:10:01;3.00;;;1.48;;
80536;SDS011;69867;47.074;15.404;2023-05-14T10:12:28;3.55;;;1.73;;
80536;SDS011;69867;47.074;15.404;2023-05-14T10:14:57;2.53;;;1.70;;
80536;SDS011;69867;47.074;15.404;2023-05-14T10:17:30;3.20;;;1.67;;
80536;SDS011;69867;47.074;15.404;2023-05-14T10:19:58;3.03;;;1.92;;
80536;SDS011;69867;47.074;15.404;2023-05-14T10:24:51;3.35;;;1.50;;
80536;SDS011;69867;47.074;15.404;2023-05-14T10:27:20;2.92;;;1.58;;
80536;SDS011;69867;47.074;15.404;2023-05-14T10:29:50;3.00;;;1.70;;
80536;SDS011;69867;47.074;15.404;2023-05-14T10:32:17;2.45;;;1.38;;
80536;SDS011;69867;47.074;15.404;2023-05-14T10:34:44;3.97;;;1.50;;
80536;SDS011;69867;47.074;15.404;2023-05-14T10:39:46;2.70;;;1.52;;
80536;SDS011;69867;47.074;15.404;2023-05-14T10:42:20;3.20;;;1.58;;
80536;SDS011;69867;47.074;15.404;2023-05-14T10:44:51;2.50;;;1.55;;
80536;SDS011;69867;47.074;15.404;2023-05-14T10:47:18;2.70;;;1.30;;
80536;SDS011;69867;47.074;15.404;2023-05-14T10:49:44;2.40;;;1.58;;
80536;SDS011;69867;47.074;15.404;2023-05-14T10:52:10;2.95;;;1.50;;
80536;SDS011;69867;47.074;15.404;2023-05-14T10:54:36;3.33;;;1.90;;
80536;SDS011;69867;47.074;15.404;2023-05-14T10:57:01;2.72;;;1.67;;
80536;SDS011;69867;47.074;15.404;2023-05-14T10:59:27;3.03;;;1.70;;
80536;SDS011;69867;47.074;15.404;2023-05-14T11:01:52;3.42;;;1.80;;
80536;SDS011;69867;47.074;15.404;2023-05-14T11:04:18;2.65;;;1.42;;
80536;SDS011;69867;47.074;15.404;2023-05-14T11:06:47;3.42;;;1.40;;
80536;SDS011;69867;47.074;15.404;2023-05-14T11:09:13;2.78;;;1.85;;
80536;SDS011;69867;47.074;15.404;2023-05-14T11:11:41;2.30;;;1.40;;
80536;SDS011;69867;47.074;15.404;2023-05-14T11:14:06;2.40;;;1.50;;
80536;SDS011;69867;47.074;15.404;2023-05-14T11:16:33;2.58;;;1.30;;
80536;SDS011;69867;47.074;15.404;2023-05-14T11:19:02;2.17;;;1.10;;
80536;SDS011;69867;47.074;15.404;2023-05-14T11:21:28;2.03;;;0.82;;
80536;SDS011;69867;47.074;15.404;2023-05-14T11:23:54;2.30;;;0.90;;
80536;SDS011;69867;47.074;15.404;2023-05-14T11:26:20;2.65;;;1.00;;
80536;SDS011;69867;47.074;15.404;2023-05-14T11:28:45;5.72;;;1.10;;
80536;SDS011;69867;47.074;15.404;2023-05-14T11:31:11;2.97;;;1.00;;
80536;SDS011;69867;47.074;15.404;2023-05-14T11:33:36;2.35;;;0.90;;
80536;SDS011;69867;47.074;15.404;2023-05-14T11:36:02;3.78;;;1.52;;
80536;SDS011;69867;47.074;15.404;2023-05-14T11:38:28;2.75;;;1.20;;
80536;SDS011;69867;47.074;15.404;2023-05-14T11:40:56;3.42;;;1.20;;
80536;SDS011;69867;47.074;15.404;2023-05-14T11:43:23;2.47;;;1.10;;
80536;SDS011;69867;47.074;15.404;2023-05-14T11:45:50;2.92;;;1.20;;
80536;SDS011;69867;47.074;15.404;2023-05-14T11:48:16;4.03;;;1.45;;
80536;SDS011;69867;47.074;15.404;2023-05-14T11:50:48;1.92;;;0.95;;
80536;SDS011;69867;47.074;15.404;2023-05-14T11:53:23;2.03;;;0.68;;
80536;SDS011;69867;47.074;15.404;2023-05-14T11:55:50;3.35;;;1.52;;
80536;SDS011;69867;47.074;15.404;2023-05-14T11:58:17;3.10;;;1.17;;
80536;SDS011;69867;47.074;15.404;2023-05-14T12:00:45;2.50;;;1.10;;
80536;SDS011;69867;47.074;15.404;2023-05-14T12:03:14;2.40;;;1.00;;
80536;SDS011;69867;47.074;15.404;2023-05-14T12:05:40;1.80;;;0.95;;
80536;SDS011;69867;47.074;15.404;2023-05-14T12:08:19;2.92;;;1.10;;
80536;SDS011;69867;47.074;15.404;2023-05-14T12:10:50;2.40;;;1.13;;
80536;SDS011;69867;47.074;15.404;2023-05-14T12:13:17;2.83;;;1.25;;
80536;SDS011;69867;47.074;15.404;2023-05-14T12:15:45;3.17;;;1.20;;
80536;SDS011;69867;47.074;15.404;2023-05-14T12:18:13;2.70;;;1.25;;
80536;SDS011;69867;47.074;15.404;2023-05-14T12:20:39;2.10;;;0.95;;
80536;SDS011;69867;47.074;15.404;2023-05-14T12:23:09;2.20;;;0.90;;
80536;SDS011;69867;47.074;15.404;2023-05-14T12:25:35;3.33;;;1.05;;
80536;SDS011;69867;47.074;15.404;2023-05-14T12:28:05;2.42;;;0.95;;
80536;SDS011;69867;47.074;15.404;2023-05-14T12:30:38;2.45;;;0.90;;
80536;SDS011;69867;47.074;15.404;2023-05-14T12:33:03;2.40;;;0.75;;
80536;SDS011;69867;47.074;15.404;2023-05-14T12:35:28;2.20;;;0.90;;
80536;SDS011;69867;47.074;15.404;2023-05-14T12:37:54;3.15;;;1.00;;
80536;SDS011;69867;47.074;15.404;2023-05-14T12:40:19;2.03;;;0.60;;
80536;SDS011;69867;47.074;15.404;2023-05-14T12:42:44;1.77;;;0.52;;
80536;SDS011;69867;47.074;15.404;2023-05-14T12:45:10;1.60;;;0.60;;
80536;SDS011;69867;47.074;15.404;2023-05-14T12:47:35;1.30;;;0.50;;
80536;SDS011;69867;47.074;15.404;2023-05-14T12:50:01;3.10;;;0.93;;
80536;SDS011;69867;47.074;15.404;2023-05-14T12:52:26;1.67;;;0.40;;
80536;SDS011;69867;47.074;15.404;2023-05-14T12:54:51;1.33;;;0.30;;
80536;SDS011;69867;47.074;15.404;2023-05-14T12:57:17;0.90;;;0.20;;
80536;SDS011;69867;47.074;15.404;2023-05-14T12:59:42;1.67;;;0.50;;
80536;SDS011;69867;47.074;15.404;2023-05-14T13:02:08;1.33;;;0.60;;
80536;SDS011;69867;47.074;15.404;2023-05-14T13:04:33;2.20;;;0.70;;
80536;SDS011;69867;47.074;15.404;2023-05-14T13:06:58;1.38;;;0.40;;
80536;SDS011;69867;47.074;15.404;2023-05-14T13:09:24;1.58;;;0.60;;
80536;SDS011;69867;47.074;15.404;2023-05-14T13:11:49;1.60;;;0.57;;
80536;SDS011;69867;47.074;15.404;2023-05-14T13:14:14;2.22;;;0.70;;
80536;SDS011;69867;47.074;15.404;2023-05-14T13:16:40;1.55;;;0.50;;
80536;SDS011;69867;47.074;15.404;2023-05-14T13:19:05;1.60;;;0.60;;
80536;SDS011;69867;47.074;15.404;2023-05-14T13:21:30;1.30;;;0.40;;
80536;SDS011;69867;47.074;15.404;2023-05-14T13:23:56;2.53;;;0.45;;
80536;SDS011;69867;47.074;15.404;2023-05-14T13:26:21;0.98;;;0.30;;
80536;SDS011;69867;47.074;15.404;2023-05-14T13:28:46;1.45;;;0.40;;
80536;SDS011;69867;47.074;15.404;2023-05-14T13:31:12;1.75;;;0.43;;
80536;SDS011;69867;47.074;15.404;2023-05-14T13:33:42;3.17;;;0.82;;
80536;SDS011;69867;47.074;15.404;2023-05-14T13:36:08;1.48;;;0.30;;
80536;SDS011;69867;47.074;15.404;2023-05-14T13:38:35;1.52;;;0.50;;
80536;SDS011;69867;47.074;15.404;2023-05-14T13:41:00;1.85;;;0.75;;
80536;SDS011;69867;47.074;15.404;2023-05-14T13:43:25;1.92;;;0.70;;
80536;SDS011;69867;47.074;15.404;2023-05-14T13:45:51;1.45;;;0.50;;
80536;SDS011;69867;47.074;15.404;2023-05-14T13:48:17;1.23;;;0.32;;
80536;SDS011;69867;47.074;15.404;2023-05-14T13:50:42;1.20;;;0.40;;
80536;SDS011;69867;47.074;15.404;2023-05-14T13:53:07;1.63;;;0.52;;
80536;SDS011;69867;47.074;15.404;2023-05-14T13:55:33;1.30;;;0.32;;
80536;SDS011;69867;47.074;15.404;2023-05-14T13:58:00;1.92;;;0.40;;
80536;SDS011;69867;47.074;15.404;2023-05-14T14:00:26;1.40;;;0.22;;
80536;SDS011;69867;47.074;15.404;2023-05-14T14:02:51;1.27;;;0.30;;
80536;SDS011;69867;47.074;15.404;2023-05-14T14:05:17;1.15;;;0.38;;
80536;SDS011;69867;47.074;15.404;2023-05-14T14:07:42;1.55;;;0.35;;
80536;SDS011;69867;47.074;15.404;2023-05-14T14:10:07;2.33;;;0.45;;
80536;SDS011;69867;47.074;15.404;2023-05-14T14:12:33;1.30;;;0.50;;
80536;SDS011;69867;47.074;15.404;2023-05-14T14:14:59;1.60;;;0.50;;
80536;SDS011;69867;47.074;15.404;2023-05-14T14:17:24;5.75;;;3.13;;
80536;SDS011;69867;47.074;15.404;2023-05-14T14:19:49;3.67;;;1.10;;
80536;SDS011;69867;47.074;15.404;2023-05-14T14:22:15;1.58;;;0.60;;
80536;SDS011;69867;47.074;15.404;2023-05-14T14:24:40;2.00;;;0.70;;
80536;SDS011;69867;47.074;15.404;2023-05-14T14:27:06;2.63;;;1.10;;
80536;SDS011;69867;47.074;15.404;2023-05-14T14:29:32;2.25;;;0.80;;
80536;SDS011;69867;47.074;15.404;2023-05-14T14:31:57;1.60;;;0.65;;
80536;SDS011;69867;47.074;15.404;2023-05-14T14:34:23;1.92;;;0.63;;
80536;SDS011;69867;47.074;15.404;2023-05-14T14:36:48;1.83;;;0.45;;
80536;SDS011;69867;47.074;15.404;2023-05-14T14:39:13;1.05;;;0.28;;
80536;SDS011;69867;47.074;15.404;2023-05-14T14:41:39;1.10;;;0.30;;
80536;SDS011;69867;47.074;15.404;2023-05-14T14:44:04;2.47;;;0.90;;
80536;SDS011;69867;47.074;15.404;2023-05-14T14:46:30;4.57;;;1.17;;
80536;SDS011;69867;47.074;15.404;2023-05-14T14:48:56;2.30;;;0.77;;
80536;SDS011;69867;47.074;15.404;2023-05-14T14:51:21;2.00;;;0.45;;